Holmen, WI (54636)

10:11 PM CDT on September 26, 2016 (GMT -0500)
| | Change Station
Active Advisory: Flood Warning Active Notice: Public Information Statement

Elev -9999 ft 0.00 °N, 0.00 °E | Updated

Clear
Clear
57 °F
Feels Like 57 °F
N
10
Wind Variable Wind from West
Gusts 18 mph

Today
High -- | Low -- °F
--% Chance of Precip.
Yesterday
High -- | Low -- °F
Precip. -- in
Pressure 29.85 in
Visibility 10.0 miles
Clouds Clear
Dew Point 38 °F
Humidity 49%
Rainfall --
Snow Depth Not available.
6:57 AM 6:54 PM
Waning Crescent, 14% visible
METAR KLSE 270253Z AUTO 26011KT 10SM CLR 16/03 A2986 RMK AO2 SLP107 T01610028 58004
Pressure 29.85 in
Visibility 10.0 miles
Clouds Clear
Dew Point 38 °F
Humidity 49%
Rainfall --
Snow Depth Not available.
6:57 AM 6:54 PM
Waning Crescent, 14% visible
METAR KLSE 270253Z AUTO 26011KT 10SM CLR 16/03 A2986 RMK AO2 SLP107 T01610028 58004

10-Day Weather Forecast

Almanac

Astronomy

Sep. 26, 2016 Rise Set
Actual Time
Civil Twilight
Nautical Twilight
Astronomical Twilight
Moon
Length of Visible Light
Length of Day
Tomorrow will be .
, % of the Moon is Illuminated

Today's Extremes

State Highs State Lows

Community

WunderPhotos

Upload Photos

1,942,026 photos uploaded!

WunderBlog® & News

Nearby

Air Quality

  Air Quality AQ Index Pollutant
Not available.

Snow Depth

Station Depth Elevation

Earthquake Activity

City Distance Mag. Time & Date
Minimum magnitude displayed is 2.5.

Coastal Water Temperatures

Place Temperature

Stations

Nearby Weather Stations

Station Location Temp. Windchill Dew Point Humidity Wind Precip. Elev Updated Type
                   

Watches & Warnings

Flood Warning
Issued: 8:58 PM CDT Sep. 26, 2016 – National Weather Service

The Flood Warning continues for
the Mississippi River at La Crosse.
* Until Tuesday evening... or until the warning is cancelled.
* At 8:15 PM Monday the stage was 11.9 feet.
* Flood stage is 12.0 feet.
* Forecast... the river is expected to remain nearly steady around
flood stage through tonight.
* Impact... at 12.0 feet... Pettibone campground and RV park is
flooded. Road access to the north end of the Shore Acres
development is impacted by flooding. Some lowland flooding occurs
in other areas near the river.


Lat... Lon 4401 9142 4388 9120 4357 9122 4361 9127 4399 9145